sensor_id;sensor_type;location;lat;lon;timestamp;P1;durP1;ratioP1;P2;durP2;ratioP2
69008;SDS011;56065;52.472;13.380;2023-11-25T00:01:19;3.80;;;0.50;;
69008;SDS011;56065;52.472;13.380;2023-11-25T00:03:45;3.40;;;0.60;;
69008;SDS011;56065;52.472;13.380;2023-11-25T00:06:10;6.70;;;0.80;;
69008;SDS011;56065;52.472;13.380;2023-11-25T00:08:35;3.63;;;0.80;;
69008;SDS011;56065;52.472;13.380;2023-11-25T00:11:01;5.03;;;0.60;;
69008;SDS011;56065;52.472;13.380;2023-11-25T00:13:26;4.30;;;0.57;;
69008;SDS011;56065;52.472;13.380;2023-11-25T00:15:52;5.70;;;0.70;;
69008;SDS011;56065;52.472;13.380;2023-11-25T00:18:17;2.47;;;0.55;;
69008;SDS011;56065;52.472;13.380;2023-11-25T00:20:43;3.47;;;0.60;;
69008;SDS011;56065;52.472;13.380;2023-11-25T00:23:08;2.40;;;0.50;;
69008;SDS011;56065;52.472;13.380;2023-11-25T00:25:34;2.90;;;0.40;;
69008;SDS011;56065;52.472;13.380;2023-11-25T00:27:59;7.18;;;0.65;;
69008;SDS011;56065;52.472;13.380;2023-11-25T00:30:24;3.23;;;0.57;;
69008;SDS011;56065;52.472;13.380;2023-11-25T00:32:51;3.73;;;0.63;;
69008;SDS011;56065;52.472;13.380;2023-11-25T00:35:16;7.07;;;0.75;;
69008;SDS011;56065;52.472;13.380;2023-11-25T00:37:42;2.33;;;0.50;;
69008;SDS011;56065;52.472;13.380;2023-11-25T00:40:07;4.60;;;0.50;;
69008;SDS011;56065;52.472;13.380;2023-11-25T00:42:35;3.30;;;0.45;;
69008;SDS011;56065;52.472;13.380;2023-11-25T00:45:05;5.93;;;0.98;;
69008;SDS011;56065;52.472;13.380;2023-11-25T00:47:31;3.95;;;0.80;;
69008;SDS011;56065;52.472;13.380;2023-11-25T00:49:57;3.77;;;0.40;;
69008;SDS011;56065;52.472;13.380;2023-11-25T00:52:22;5.07;;;0.70;;
69008;SDS011;56065;52.472;13.380;2023-11-25T00:54:47;4.77;;;0.60;;
69008;SDS011;56065;52.472;13.380;2023-11-25T00:57:13;4.78;;;0.50;;
69008;SDS011;56065;52.472;13.380;2023-11-25T00:59:39;6.05;;;0.40;;
69008;SDS011;56065;52.472;13.380;2023-11-25T01:02:04;4.40;;;0.50;;
69008;SDS011;56065;52.472;13.380;2023-11-25T01:04:30;2.83;;;0.40;;
69008;SDS011;56065;52.472;13.380;2023-11-25T01:06:56;3.13;;;0.30;;
69008;SDS011;56065;52.472;13.380;2023-11-25T01:09:21;4.70;;;0.50;;
69008;SDS011;56065;52.472;13.380;2023-11-25T01:11:50;3.40;;;0.40;;
69008;SDS011;56065;52.472;13.380;2023-11-25T01:14:15;3.10;;;0.30;;
69008;SDS011;56065;52.472;13.380;2023-11-25T01:16:41;2.70;;;0.40;;
69008;SDS011;56065;52.472;13.380;2023-11-25T01:19:06;2.13;;;0.23;;
69008;SDS011;56065;52.472;13.380;2023-11-25T01:21:32;2.70;;;0.40;;
69008;SDS011;56065;52.472;13.380;2023-11-25T01:23:58;3.80;;;0.40;;
69008;SDS011;56065;52.472;13.380;2023-11-25T01:26:23;3.00;;;0.30;;
69008;SDS011;56065;52.472;13.380;2023-11-25T01:28:48;4.67;;;0.60;;
69008;SDS011;56065;52.472;13.380;2023-11-25T01:31:14;4.77;;;0.53;;
69008;SDS011;56065;52.472;13.380;2023-11-25T01:33:40;3.78;;;0.68;;
69008;SDS011;56065;52.472;13.380;2023-11-25T01:36:06;2.90;;;0.50;;
69008;SDS011;56065;52.472;13.380;2023-11-25T01:38:35;4.82;;;0.50;;
69008;SDS011;56065;52.472;13.380;2023-11-25T01:41:00;2.55;;;0.40;;
69008;SDS011;56065;52.472;13.380;2023-11-25T01:43:26;4.97;;;0.55;;
69008;SDS011;56065;52.472;13.380;2023-11-25T01:45:52;3.73;;;0.50;;
69008;SDS011;56065;52.472;13.380;2023-11-25T01:48:21;4.47;;;0.45;;
69008;SDS011;56065;52.472;13.380;2023-11-25T01:50:47;3.37;;;0.40;;
69008;SDS011;56065;52.472;13.380;2023-11-25T01:53:14;4.32;;;0.60;;
69008;SDS011;56065;52.472;13.380;2023-11-25T01:55:42;4.03;;;0.40;;
69008;SDS011;56065;52.472;13.380;2023-11-25T01:58:09;5.30;;;0.35;;
69008;SDS011;56065;52.472;13.380;2023-11-25T02:00:35;2.73;;;0.43;;
69008;SDS011;56065;52.472;13.380;2023-11-25T02:03:03;5.43;;;0.70;;
69008;SDS011;56065;52.472;13.380;2023-11-25T02:05:30;3.22;;;0.50;;
69008;SDS011;56065;52.472;13.380;2023-11-25T02:07:56;3.92;;;0.40;;
69008;SDS011;56065;52.472;13.380;2023-11-25T02:10:21;1.60;;;0.40;;
69008;SDS011;56065;52.472;13.380;2023-11-25T02:12:47;3.10;;;0.40;;
69008;SDS011;56065;52.472;13.380;2023-11-25T02:15:12;4.90;;;0.40;;
69008;SDS011;56065;52.472;13.380;2023-11-25T02:17:43;4.55;;;0.40;;
69008;SDS011;56065;52.472;13.380;2023-11-25T02:20:12;1.85;;;0.20;;
69008;SDS011;56065;52.472;13.380;2023-11-25T02:22:39;2.25;;;0.30;;
69008;SDS011;56065;52.472;13.380;2023-11-25T02:25:06;3.30;;;0.50;;
69008;SDS011;56065;52.472;13.380;2023-11-25T02:27:32;4.05;;;0.20;;
69008;SDS011;56065;52.472;13.380;2023-11-25T02:29:59;2.33;;;0.50;;
69008;SDS011;56065;52.472;13.380;2023-11-25T02:32:27;4.57;;;0.43;;
69008;SDS011;56065;52.472;13.380;2023-11-25T02:34:53;5.28;;;0.30;;
69008;SDS011;56065;52.472;13.380;2023-11-25T02:37:18;5.07;;;0.33;;
69008;SDS011;56065;52.472;13.380;2023-11-25T02:39:44;3.28;;;0.70;;
69008;SDS011;56065;52.472;13.380;2023-11-25T02:42:10;5.10;;;0.40;;
69008;SDS011;56065;52.472;13.380;2023-11-25T02:44:37;4.40;;;0.55;;
69008;SDS011;56065;52.472;13.380;2023-11-25T02:47:02;3.70;;;0.37;;
69008;SDS011;56065;52.472;13.380;2023-11-25T02:49:29;3.00;;;0.40;;
69008;SDS011;56065;52.472;13.380;2023-11-25T02:51:55;4.78;;;0.50;;
69008;SDS011;56065;52.472;13.380;2023-11-25T02:54:21;4.10;;;0.37;;
69008;SDS011;56065;52.472;13.380;2023-11-25T02:56:47;5.00;;;0.73;;
69008;SDS011;56065;52.472;13.380;2023-11-25T02:59:12;9.23;;;0.40;;
69008;SDS011;56065;52.472;13.380;2023-11-25T03:01:38;2.00;;;0.27;;
69008;SDS011;56065;52.472;13.380;2023-11-25T03:04:13;4.45;;;0.45;;
69008;SDS011;56065;52.472;13.380;2023-11-25T03:06:39;1.42;;;0.20;;
69008;SDS011;56065;52.472;13.380;2023-11-25T03:09:04;3.77;;;0.43;;
69008;SDS011;56065;52.472;13.380;2023-11-25T03:11:31;4.60;;;0.88;;
69008;SDS011;56065;52.472;13.380;2023-11-25T03:13:56;1.90;;;0.37;;
69008;SDS011;56065;52.472;13.380;2023-11-25T03:16:22;4.10;;;0.60;;
69008;SDS011;56065;52.472;13.380;2023-11-25T03:18:49;4.10;;;0.40;;
69008;SDS011;56065;52.472;13.380;2023-11-25T03:21:18;5.30;;;0.70;;
69008;SDS011;56065;52.472;13.380;2023-11-25T03:23:45;3.20;;;0.38;;
69008;SDS011;56065;52.472;13.380;2023-11-25T03:26:12;1.77;;;0.20;;
69008;SDS011;56065;52.472;13.380;2023-11-25T03:28:38;6.35;;;0.40;;
69008;SDS011;56065;52.472;13.380;2023-11-25T03:31:04;5.00;;;0.43;;
69008;SDS011;56065;52.472;13.380;2023-11-25T03:33:30;5.05;;;0.40;;
69008;SDS011;56065;52.472;13.380;2023-11-25T03:35:56;3.58;;;0.40;;
69008;SDS011;56065;52.472;13.380;2023-11-25T03:38:21;2.90;;;0.30;;
69008;SDS011;56065;52.472;13.380;2023-11-25T03:40:47;4.18;;;0.40;;
69008;SDS011;56065;52.472;13.380;2023-11-25T03:43:13;7.43;;;0.40;;
69008;SDS011;56065;52.472;13.380;2023-11-25T03:45:39;5.90;;;0.45;;
69008;SDS011;56065;52.472;13.380;2023-11-25T03:48:04;3.43;;;0.40;;
69008;SDS011;56065;52.472;13.380;2023-11-25T03:50:30;3.05;;;0.30;;
69008;SDS011;56065;52.472;13.380;2023-11-25T03:52:56;4.47;;;0.43;;
69008;SDS011;56065;52.472;13.380;2023-11-25T03:55:21;2.77;;;0.60;;
69008;SDS011;56065;52.472;13.380;2023-11-25T03:57:46;3.37;;;0.50;;
69008;SDS011;56065;52.472;13.380;2023-11-25T04:00:12;2.43;;;0.30;;
69008;SDS011;56065;52.472;13.380;2023-11-25T04:02:44;9.75;;;1.05;;
69008;SDS011;56065;52.472;13.380;2023-11-25T04:05:11;3.20;;;0.80;;
69008;SDS011;56065;52.472;13.380;2023-11-25T04:07:37;3.88;;;0.73;;
69008;SDS011;56065;52.472;13.380;2023-11-25T04:10:04;3.58;;;0.40;;
69008;SDS011;56065;52.472;13.380;2023-11-25T04:12:38;3.80;;;0.68;;
69008;SDS011;56065;52.472;13.380;2023-11-25T04:15:04;5.03;;;0.63;;
69008;SDS011;56065;52.472;13.380;2023-11-25T04:17:30;4.32;;;0.98;;
69008;SDS011;56065;52.472;13.380;2023-11-25T04:19:56;6.73;;;0.80;;
69008;SDS011;56065;52.472;13.380;2023-11-25T04:22:22;4.93;;;0.60;;
69008;SDS011;56065;52.472;13.380;2023-11-25T04:24:48;5.37;;;0.80;;
69008;SDS011;56065;52.472;13.380;2023-11-25T04:27:14;3.45;;;0.63;;
69008;SDS011;56065;52.472;13.380;2023-11-25T04:29:40;3.85;;;0.60;;
69008;SDS011;56065;52.472;13.380;2023-11-25T04:32:07;4.85;;;0.57;;
69008;SDS011;56065;52.472;13.380;2023-11-25T04:34:34;3.22;;;0.82;;
69008;SDS011;56065;52.472;13.380;2023-11-25T04:36:59;4.35;;;0.68;;
69008;SDS011;56065;52.472;13.380;2023-11-25T04:39:25;6.38;;;1.13;;
69008;SDS011;56065;52.472;13.380;2023-11-25T04:41:50;6.17;;;0.80;;
69008;SDS011;56065;52.472;13.380;2023-11-25T04:44:16;5.17;;;0.73;;
69008;SDS011;56065;52.472;13.380;2023-11-25T04:46:43;6.78;;;0.98;;
69008;SDS011;56065;52.472;13.380;2023-11-25T04:49:10;5.15;;;0.80;;
69008;SDS011;56065;52.472;13.380;2023-11-25T04:51:36;6.75;;;0.70;;
69008;SDS011;56065;52.472;13.380;2023-11-25T04:54:01;2.60;;;0.55;;
69008;SDS011;56065;52.472;13.380;2023-11-25T04:56:26;7.37;;;0.90;;
69008;SDS011;56065;52.472;13.380;2023-11-25T04:58:52;5.30;;;0.70;;
69008;SDS011;56065;52.472;13.380;2023-11-25T05:01:17;8.20;;;0.73;;
69008;SDS011;56065;52.472;13.380;2023-11-25T05:03:42;7.40;;;0.93;;
69008;SDS011;56065;52.472;13.380;2023-11-25T05:06:09;5.28;;;0.70;;
69008;SDS011;56065;52.472;13.380;2023-11-25T05:08:34;7.23;;;0.70;;
69008;SDS011;56065;52.472;13.380;2023-11-25T05:11:00;4.10;;;0.60;;
69008;SDS011;56065;52.472;13.380;2023-11-25T05:13:25;5.40;;;0.70;;
69008;SDS011;56065;52.472;13.380;2023-11-25T05:15:50;7.13;;;1.20;;
69008;SDS011;56065;52.472;13.380;2023-11-25T05:18:16;4.80;;;0.73;;
69008;SDS011;56065;52.472;13.380;2023-11-25T05:20:42;7.07;;;0.70;;
69008;SDS011;56065;52.472;13.380;2023-11-25T05:23:08;7.27;;;1.30;;
69008;SDS011;56065;52.472;13.380;2023-11-25T05:25:33;4.57;;;0.60;;
69008;SDS011;56065;52.472;13.380;2023-11-25T05:27:59;6.80;;;0.80;;
69008;SDS011;56065;52.472;13.380;2023-11-25T05:30:24;5.33;;;0.50;;
69008;SDS011;56065;52.472;13.380;2023-11-25T05:32:50;8.32;;;0.85;;
69008;SDS011;56065;52.472;13.380;2023-11-25T05:35:15;7.00;;;0.80;;
69008;SDS011;56065;52.472;13.380;2023-11-25T05:37:42;5.53;;;0.63;;
69008;SDS011;56065;52.472;13.380;2023-11-25T05:40:08;5.47;;;0.60;;
69008;SDS011;56065;52.472;13.380;2023-11-25T05:42:36;6.35;;;0.60;;
69008;SDS011;56065;52.472;13.380;2023-11-25T05:45:06;6.65;;;1.27;;
69008;SDS011;56065;52.472;13.380;2023-11-25T05:47:35;7.13;;;0.80;;
69008;SDS011;56065;52.472;13.380;2023-11-25T05:50:01;4.97;;;0.50;;
69008;SDS011;56065;52.472;13.380;2023-11-25T05:52:27;2.50;;;0.60;;
69008;SDS011;56065;52.472;13.380;2023-11-25T05:54:53;5.47;;;1.08;;
69008;SDS011;56065;52.472;13.380;2023-11-25T05:57:20;4.80;;;1.23;;
69008;SDS011;56065;52.472;13.380;2023-11-25T05:59:46;6.78;;;0.60;;
69008;SDS011;56065;52.472;13.380;2023-11-25T06:02:11;3.33;;;0.60;;
69008;SDS011;56065;52.472;13.380;2023-11-25T06:04:37;5.40;;;0.50;;
69008;SDS011;56065;52.472;13.380;2023-11-25T06:07:02;12.27;;;1.30;;
69008;SDS011;56065;52.472;13.380;2023-11-25T06:09:27;3.60;;;0.50;;
69008;SDS011;56065;52.472;13.380;2023-11-25T06:11:53;3.50;;;0.40;;
69008;SDS011;56065;52.472;13.380;2023-11-25T06:14:18;5.97;;;0.53;;
69008;SDS011;56065;52.472;13.380;2023-11-25T06:16:44;5.30;;;0.70;;
69008;SDS011;56065;52.472;13.380;2023-11-25T06:19:11;6.47;;;1.23;;
69008;SDS011;56065;52.472;13.380;2023-11-25T06:21:37;5.57;;;0.60;;
69008;SDS011;56065;52.472;13.380;2023-11-25T06:24:03;5.60;;;0.55;;
69008;SDS011;56065;52.472;13.380;2023-11-25T06:26:29;4.10;;;0.80;;
69008;SDS011;56065;52.472;13.380;2023-11-25T06:28:54;4.43;;;1.03;;
69008;SDS011;56065;52.472;13.380;2023-11-25T06:31:20;10.30;;;0.90;;
69008;SDS011;56065;52.472;13.380;2023-11-25T06:33:46;5.63;;;0.60;;
69008;SDS011;56065;52.472;13.380;2023-11-25T06:36:12;4.80;;;0.50;;
69008;SDS011;56065;52.472;13.380;2023-11-25T06:38:37;4.03;;;0.50;;
69008;SDS011;56065;52.472;13.380;2023-11-25T06:41:03;5.20;;;0.50;;
69008;SDS011;56065;52.472;13.380;2023-11-25T06:43:29;3.70;;;0.47;;
69008;SDS011;56065;52.472;13.380;2023-11-25T06:45:54;4.63;;;0.40;;
69008;SDS011;56065;52.472;13.380;2023-11-25T06:48:20;7.80;;;1.10;;
69008;SDS011;56065;52.472;13.380;2023-11-25T06:50:49;4.00;;;0.40;;
69008;SDS011;56065;52.472;13.380;2023-11-25T06:53:15;5.57;;;0.80;;
69008;SDS011;56065;52.472;13.380;2023-11-25T06:55:41;6.20;;;0.63;;
69008;SDS011;56065;52.472;13.380;2023-11-25T06:58:10;3.60;;;0.50;;
69008;SDS011;56065;52.472;13.380;2023-11-25T07:00:39;5.95;;;0.70;;
69008;SDS011;56065;52.472;13.380;2023-11-25T07:03:05;5.03;;;0.90;;
69008;SDS011;56065;52.472;13.380;2023-11-25T07:05:31;5.65;;;0.70;;
69008;SDS011;56065;52.472;13.380;2023-11-25T07:07:57;2.47;;;0.77;;
69008;SDS011;56065;52.472;13.380;2023-11-25T07:10:22;5.20;;;0.90;;
69008;SDS011;56065;52.472;13.380;2023-11-25T07:12:48;5.28;;;0.80;;
69008;SDS011;56065;52.472;13.380;2023-11-25T07:15:13;7.97;;;0.93;;
69008;SDS011;56065;52.472;13.380;2023-11-25T07:17:39;4.32;;;0.43;;
69008;SDS011;56065;52.472;13.380;2023-11-25T07:20:05;6.70;;;0.90;;
69008;SDS011;56065;52.472;13.380;2023-11-25T07:22:37;5.20;;;0.82;;
69008;SDS011;56065;52.472;13.380;2023-11-25T07:25:03;10.98;;;0.60;;
69008;SDS011;56065;52.472;13.380;2023-11-25T07:27:30;6.95;;;1.00;;
69008;SDS011;56065;52.472;13.380;2023-11-25T07:29:55;5.85;;;0.70;;
69008;SDS011;56065;52.472;13.380;2023-11-25T07:32:25;2.57;;;0.50;;
69008;SDS011;56065;52.472;13.380;2023-11-25T07:34:51;4.82;;;1.02;;
69008;SDS011;56065;52.472;13.380;2023-11-25T07:37:17;4.87;;;0.53;;
69008;SDS011;56065;52.472;13.380;2023-11-25T07:39:43;5.38;;;0.60;;
69008;SDS011;56065;52.472;13.380;2023-11-25T07:42:09;4.53;;;0.60;;
69008;SDS011;56065;52.472;13.380;2023-11-25T07:44:34;5.00;;;0.70;;
69008;SDS011;56065;52.472;13.380;2023-11-25T07:47:00;5.80;;;0.70;;
69008;SDS011;56065;52.472;13.380;2023-11-25T07:49:26;5.70;;;0.57;;
69008;SDS011;56065;52.472;13.380;2023-11-25T07:51:54;5.53;;;0.50;;
69008;SDS011;56065;52.472;13.380;2023-11-25T07:54:20;6.75;;;1.13;;
69008;SDS011;56065;52.472;13.380;2023-11-25T07:56:45;4.63;;;0.50;;
69008;SDS011;56065;52.472;13.380;2023-11-25T07:59:12;3.40;;;1.02;;
69008;SDS011;56065;52.472;13.380;2023-11-25T08:01:38;5.93;;;0.67;;
69008;SDS011;56065;52.472;13.380;2023-11-25T08:04:04;7.20;;;0.98;;
69008;SDS011;56065;52.472;13.380;2023-11-25T08:06:29;6.20;;;0.63;;
69008;SDS011;56065;52.472;13.380;2023-11-25T08:08:55;4.57;;;0.90;;
69008;SDS011;56065;52.472;13.380;2023-11-25T08:11:21;6.13;;;0.52;;
69008;SDS011;56065;52.472;13.380;2023-11-25T08:13:50;6.05;;;0.60;;
69008;SDS011;56065;52.472;13.380;2023-11-25T08:16:16;5.20;;;0.60;;
69008;SDS011;56065;52.472;13.380;2023-11-25T08:18:43;4.32;;;0.70;;
69008;SDS011;56065;52.472;13.380;2023-11-25T08:21:08;4.83;;;0.50;;
69008;SDS011;56065;52.472;13.380;2023-11-25T08:23:34;7.87;;;0.63;;
69008;SDS011;56065;52.472;13.380;2023-11-25T08:25:59;3.55;;;0.35;;
69008;SDS011;56065;52.472;13.380;2023-11-25T08:28:25;3.88;;;0.45;;
69008;SDS011;56065;52.472;13.380;2023-11-25T08:30:50;5.43;;;0.67;;
69008;SDS011;56065;52.472;13.380;2023-11-25T08:33:16;5.60;;;1.23;;
69008;SDS011;56065;52.472;13.380;2023-11-25T08:35:42;8.45;;;1.30;;
69008;SDS011;56065;52.472;13.380;2023-11-25T08:38:07;4.97;;;0.57;;
69008;SDS011;56065;52.472;13.380;2023-11-25T08:40:33;8.35;;;0.90;;
69008;SDS011;56065;52.472;13.380;2023-11-25T08:43:00;4.20;;;0.60;;
69008;SDS011;56065;52.472;13.380;2023-11-25T08:45:33;5.13;;;0.80;;
69008;SDS011;56065;52.472;13.380;2023-11-25T08:47:59;4.53;;;0.65;;
69008;SDS011;56065;52.472;13.380;2023-11-25T08:50:24;2.83;;;0.40;;
69008;SDS011;56065;52.472;13.380;2023-11-25T08:52:50;3.77;;;0.40;;
69008;SDS011;56065;52.472;13.380;2023-11-25T08:55:16;4.78;;;0.73;;
69008;SDS011;56065;52.472;13.380;2023-11-25T08:57:44;4.85;;;0.57;;
69008;SDS011;56065;52.472;13.380;2023-11-25T09:00:10;9.13;;;1.17;;
69008;SDS011;56065;52.472;13.380;2023-11-25T09:02:44;5.32;;;0.77;;
69008;SDS011;56065;52.472;13.380;2023-11-25T09:05:10;4.70;;;0.97;;
69008;SDS011;56065;52.472;13.380;2023-11-25T09:07:36;7.50;;;0.77;;
69008;SDS011;56065;52.472;13.380;2023-11-25T09:10:03;4.88;;;0.40;;
69008;SDS011;56065;52.472;13.380;2023-11-25T09:12:30;2.83;;;0.70;;
69008;SDS011;56065;52.472;13.380;2023-11-25T09:14:56;5.90;;;0.68;;
69008;SDS011;56065;52.472;13.380;2023-11-25T09:17:22;5.90;;;0.60;;
69008;SDS011;56065;52.472;13.380;2023-11-25T09:19:47;4.65;;;0.40;;
69008;SDS011;56065;52.472;13.380;2023-11-25T09:22:12;7.03;;;0.70;;
69008;SDS011;56065;52.472;13.380;2023-11-25T09:24:38;4.17;;;0.83;;
69008;SDS011;56065;52.472;13.380;2023-11-25T09:27:05;8.52;;;0.98;;
69008;SDS011;56065;52.472;13.380;2023-11-25T09:29:30;8.63;;;0.67;;
69008;SDS011;56065;52.472;13.380;2023-11-25T09:31:55;3.53;;;0.47;;
69008;SDS011;56065;52.472;13.380;2023-11-25T09:34:21;5.93;;;0.80;;
69008;SDS011;56065;52.472;13.380;2023-11-25T09:36:46;7.33;;;0.80;;
69008;SDS011;56065;52.472;13.380;2023-11-25T09:39:11;10.60;;;0.50;;
69008;SDS011;56065;52.472;13.380;2023-11-25T09:41:37;3.43;;;0.60;;
69008;SDS011;56065;52.472;13.380;2023-11-25T09:44:02;6.45;;;0.80;;
69008;SDS011;56065;52.472;13.380;2023-11-25T09:46:31;4.43;;;0.70;;
69008;SDS011;56065;52.472;13.380;2023-11-25T09:48:58;4.00;;;0.88;;
69008;SDS011;56065;52.472;13.380;2023-11-25T09:51:23;4.97;;;0.47;;
69008;SDS011;56065;52.472;13.380;2023-11-25T09:53:50;5.50;;;0.77;;
69008;SDS011;56065;52.472;13.380;2023-11-25T09:56:21;3.25;;;0.70;;
69008;SDS011;56065;52.472;13.380;2023-11-25T09:58:46;4.63;;;0.70;;
69008;SDS011;56065;52.472;13.380;2023-11-25T10:01:13;6.15;;;0.73;;
69008;SDS011;56065;52.472;13.380;2023-11-25T10:03:39;6.20;;;0.80;;
69008;SDS011;56065;52.472;13.380;2023-11-25T10:06:08;3.42;;;0.55;;
69008;SDS011;56065;52.472;13.380;2023-11-25T10:08:33;6.80;;;0.75;;
69008;SDS011;56065;52.472;13.380;2023-11-25T10:11:03;6.00;;;1.63;;
69008;SDS011;56065;52.472;13.380;2023-11-25T10:16:08;6.03;;;0.65;;
69008;SDS011;56065;52.472;13.380;2023-11-25T10:18:38;5.13;;;0.82;;
69008;SDS011;56065;52.472;13.380;2023-11-25T10:21:04;7.97;;;0.70;;
69008;SDS011;56065;52.472;13.380;2023-11-25T10:23:31;6.00;;;0.73;;
69008;SDS011;56065;52.472;13.380;2023-11-25T10:25:57;8.10;;;0.90;;
69008;SDS011;56065;52.472;13.380;2023-11-25T10:28:28;5.35;;;0.50;;
69008;SDS011;56065;52.472;13.380;2023-11-25T10:30:58;4.95;;;0.70;;
69008;SDS011;56065;52.472;13.380;2023-11-25T10:33:28;6.73;;;0.73;;
69008;SDS011;56065;52.472;13.380;2023-11-25T10:35:54;6.55;;;0.88;;
69008;SDS011;56065;52.472;13.380;2023-11-25T10:38:20;7.25;;;1.90;;
69008;SDS011;56065;52.472;13.380;2023-11-25T10:43:31;5.55;;;0.80;;
69008;SDS011;56065;52.472;13.380;2023-11-25T10:46:03;7.93;;;1.17;;
69008;SDS011;56065;52.472;13.380;2023-11-25T10:48:34;5.90;;;0.98;;
69008;SDS011;56065;52.472;13.380;2023-11-25T10:51:02;5.95;;;1.23;;
69008;SDS011;56065;52.472;13.380;2023-11-25T10:53:29;5.65;;;0.80;;
69008;SDS011;56065;52.472;13.380;2023-11-25T10:55:55;7.22;;;1.25;;
69008;SDS011;56065;52.472;13.380;2023-11-25T10:58:21;4.13;;;0.70;;
69008;SDS011;56065;52.472;13.380;2023-11-25T11:00:47;5.95;;;0.68;;
69008;SDS011;56065;52.472;13.380;2023-11-25T11:03:13;6.33;;;1.23;;
69008;SDS011;56065;52.472;13.380;2023-11-25T11:05:51;7.80;;;1.08;;
69008;SDS011;56065;52.472;13.380;2023-11-25T11:08:34;4.95;;;0.70;;
69008;SDS011;56065;52.472;13.380;2023-11-25T11:11:02;6.97;;;0.68;;
69008;SDS011;56065;52.472;13.380;2023-11-25T11:13:36;3.95;;;0.52;;
69008;SDS011;56065;52.472;13.380;2023-11-25T11:16:07;5.20;;;0.70;;
69008;SDS011;56065;52.472;13.380;2023-11-25T11:18:47;8.23;;;1.17;;
69008;SDS011;56065;52.472;13.380;2023-11-25T11:21:15;8.27;;;1.13;;
69008;SDS011;56065;52.472;13.380;2023-11-25T11:23:44;4.13;;;0.77;;
69008;SDS011;56065;52.472;13.380;2023-11-25T11:26:23;4.57;;;0.93;;
69008;SDS011;56065;52.472;13.380;2023-11-25T11:32:10;4.53;;;0.65;;
69008;SDS011;56065;52.472;13.380;2023-11-25T11:34:43;5.57;;;0.70;;
69008;SDS011;56065;52.472;13.380;2023-11-25T11:37:08;9.77;;;0.80;;
69008;SDS011;56065;52.472;13.380;2023-11-25T11:47:55;2.28;;;0.55;;
69008;SDS011;56065;52.472;13.380;2023-11-25T11:58:14;3.53;;;0.80;;
69008;SDS011;56065;52.472;13.380;2023-11-25T12:03:31;3.40;;;0.73;;
69008;SDS011;56065;52.472;13.380;2023-11-25T12:06:01;3.97;;;0.40;;
69008;SDS011;56065;52.472;13.380;2023-11-25T12:08:27;1.75;;;0.30;;
69008;SDS011;56065;52.472;13.380;2023-11-25T12:10:53;3.03;;;0.60;;
69008;SDS011;56065;52.472;13.380;2023-11-25T12:13:25;2.47;;;0.40;;
69008;SDS011;56065;52.472;13.380;2023-11-25T12:15:55;4.05;;;0.88;;
69008;SDS011;56065;52.472;13.380;2023-11-25T12:18:25;3.25;;;0.70;;
69008;SDS011;56065;52.472;13.380;2023-11-25T12:20:53;1.30;;;0.30;;
69008;SDS011;56065;52.472;13.380;2023-11-25T12:23:19;7.55;;;1.20;;
69008;SDS011;56065;52.472;13.380;2023-11-25T12:25:45;2.43;;;0.60;;
69008;SDS011;56065;52.472;13.380;2023-11-25T12:28:11;2.88;;;0.60;;
69008;SDS011;56065;52.472;13.380;2023-11-25T12:30:38;4.20;;;0.60;;
69008;SDS011;56065;52.472;13.380;2023-11-25T12:33:06;3.10;;;0.60;;
69008;SDS011;56065;52.472;13.380;2023-11-25T12:35:33;4.78;;;0.68;;
69008;SDS011;56065;52.472;13.380;2023-11-25T12:37:59;3.03;;;0.50;;
69008;SDS011;56065;52.472;13.380;2023-11-25T12:40:26;2.58;;;1.10;;
69008;SDS011;56065;52.472;13.380;2023-11-25T12:42:51;3.22;;;0.73;;
69008;SDS011;56065;52.472;13.380;2023-11-25T12:45:30;4.15;;;0.60;;
69008;SDS011;56065;52.472;13.380;2023-11-25T12:48:07;2.33;;;0.73;;
69008;SDS011;56065;52.472;13.380;2023-11-25T12:53:26;3.10;;;0.57;;
69008;SDS011;56065;52.472;13.380;2023-11-25T12:55:51;2.20;;;0.60;;
69008;SDS011;56065;52.472;13.380;2023-11-25T12:58:18;3.90;;;0.80;;
69008;SDS011;56065;52.472;13.380;2023-11-25T13:01:04;4.03;;;0.60;;
69008;SDS011;56065;52.472;13.380;2023-11-25T13:03:34;3.17;;;0.52;;
69008;SDS011;56065;52.472;13.380;2023-11-25T13:06:04;3.70;;;0.80;;
69008;SDS011;56065;52.472;13.380;2023-11-25T13:08:34;3.00;;;0.87;;
69008;SDS011;56065;52.472;13.380;2023-11-25T13:11:02;3.65;;;0.70;;
69008;SDS011;56065;52.472;13.380;2023-11-25T13:13:29;3.72;;;0.65;;
69008;SDS011;56065;52.472;13.380;2023-11-25T13:15:56;4.97;;;0.88;;
69008;SDS011;56065;52.472;13.380;2023-11-25T13:18:22;4.40;;;0.90;;
69008;SDS011;56065;52.472;13.380;2023-11-25T13:20:48;4.83;;;0.80;;
69008;SDS011;56065;52.472;13.380;2023-11-25T13:23:14;4.47;;;1.17;;
69008;SDS011;56065;52.472;13.380;2023-11-25T13:25:42;6.80;;;1.35;;
69008;SDS011;56065;52.472;13.380;2023-11-25T13:28:07;2.70;;;0.70;;
69008;SDS011;56065;52.472;13.380;2023-11-25T13:30:34;4.37;;;1.00;;
69008;SDS011;56065;52.472;13.380;2023-11-25T13:32:59;5.82;;;1.77;;
69008;SDS011;56065;52.472;13.380;2023-11-25T13:35:25;4.67;;;1.23;;
69008;SDS011;56065;52.472;13.380;2023-11-25T13:37:50;5.20;;;1.43;;
69008;SDS011;56065;52.472;13.380;2023-11-25T13:40:18;4.93;;;1.35;;
69008;SDS011;56065;52.472;13.380;2023-11-25T13:42:47;5.20;;;1.50;;
69008;SDS011;56065;52.472;13.380;2023-11-25T13:45:13;4.95;;;1.67;;
69008;SDS011;56065;52.472;13.380;2023-11-25T13:47:39;4.93;;;1.50;;
69008;SDS011;56065;52.472;13.380;2023-11-25T13:50:06;5.45;;;1.60;;
69008;SDS011;56065;52.472;13.380;2023-11-25T13:52:32;6.75;;;1.90;;
69008;SDS011;56065;52.472;13.380;2023-11-25T13:54:58;6.30;;;2.10;;
69008;SDS011;56065;52.472;13.380;2023-11-25T13:57:23;8.27;;;2.40;;
69008;SDS011;56065;52.472;13.380;2023-11-25T13:59:49;5.90;;;2.10;;
69008;SDS011;56065;52.472;13.380;2023-11-25T14:02:14;5.93;;;2.17;;
69008;SDS011;56065;52.472;13.380;2023-11-25T14:04:40;6.68;;;2.50;;
69008;SDS011;56065;52.472;13.380;2023-11-25T14:07:07;4.57;;;1.35;;
69008;SDS011;56065;52.472;13.380;2023-11-25T14:09:32;5.13;;;1.40;;
69008;SDS011;56065;52.472;13.380;2023-11-25T14:11:58;6.33;;;1.57;;
69008;SDS011;56065;52.472;13.380;2023-11-25T14:14:25;5.88;;;1.23;;
69008;SDS011;56065;52.472;13.380;2023-11-25T14:16:51;4.80;;;1.92;;
69008;SDS011;56065;52.472;13.380;2023-11-25T14:19:16;6.90;;;1.60;;
69008;SDS011;56065;52.472;13.380;2023-11-25T14:21:44;5.70;;;1.65;;
69008;SDS011;56065;52.472;13.380;2023-11-25T14:24:10;4.67;;;1.43;;
69008;SDS011;56065;52.472;13.380;2023-11-25T14:26:35;6.37;;;1.40;;
69008;SDS011;56065;52.472;13.380;2023-11-25T14:29:02;4.95;;;1.00;;
69008;SDS011;56065;52.472;13.380;2023-11-25T14:31:27;7.70;;;1.23;;
69008;SDS011;56065;52.472;13.380;2023-11-25T14:33:57;4.40;;;1.10;;
69008;SDS011;56065;52.472;13.380;2023-11-25T14:36:25;4.65;;;1.20;;
69008;SDS011;56065;52.472;13.380;2023-11-25T14:38:51;4.28;;;1.05;;
69008;SDS011;56065;52.472;13.380;2023-11-25T14:41:23;5.27;;;1.03;;
69008;SDS011;56065;52.472;13.380;2023-11-25T14:43:51;5.10;;;1.30;;
69008;SDS011;56065;52.472;13.380;2023-11-25T14:46:17;4.60;;;1.35;;
69008;SDS011;56065;52.472;13.380;2023-11-25T14:48:43;4.70;;;1.30;;
69008;SDS011;56065;52.472;13.380;2023-11-25T14:51:09;8.93;;;1.33;;
69008;SDS011;56065;52.472;13.380;2023-11-25T14:53:35;6.00;;;1.65;;
69008;SDS011;56065;52.472;13.380;2023-11-25T14:56:03;6.60;;;1.60;;
69008;SDS011;56065;52.472;13.380;2023-11-25T14:58:31;5.97;;;1.30;;
69008;SDS011;56065;52.472;13.380;2023-11-25T15:00:57;6.05;;;1.50;;